Corfu, Greece
Current Conditions -  °F | °C
As of 7:20 PM on Sunday 23 Nov 2014 (Local Time) from LGKR Reporting Station
Clear Clear  
Wind Chill: 52°   Ceiling: Unl
Heat Index: 52°   Visibility: 6mi
Dew Point: 48°   Wind: 0mph
Humidity: 88%   Direction: NA
Pressure: 30.18"   Gusts: NA
Location:  39.62°N, 19.92°E
Report Text: LGKR 231720Z 00000KT CAVOK 11/09 Q1022 NOSIG
Loading
Personal Weather Stations






























Interactive Weather Map New forecast layout! Learn more

10-Day Weather Forecast

Advertisements
Track Severe Weather on mobile